sensor_id;sensor_type;location;lat;lon;timestamp;P1;durP1;ratioP1;P2;durP2;ratioP2
21890;SDS011;11110;52.386;16.940;2023-12-28T00:00:53;47.77;;;14.57;;
21890;SDS011;11110;52.386;16.940;2023-12-28T00:03:41;43.27;;;12.70;;
21890;SDS011;11110;52.386;16.940;2023-12-28T00:06:10;47.03;;;13.23;;
21890;SDS011;11110;52.386;16.940;2023-12-28T00:08:39;42.50;;;13.27;;
21890;SDS011;11110;52.386;16.940;2023-12-28T00:11:13;41.90;;;12.23;;
21890;SDS011;11110;52.386;16.940;2023-12-28T00:13:41;36.87;;;12.33;;
21890;SDS011;11110;52.386;16.940;2023-12-28T00:16:10;46.97;;;13.47;;
21890;SDS011;11110;52.386;16.940;2023-12-28T00:18:38;43.20;;;13.23;;
21890;SDS011;11110;52.386;16.940;2023-12-28T00:21:07;42.23;;;13.73;;
21890;SDS011;11110;52.386;16.940;2023-12-28T00:23:35;40.20;;;12.67;;
21890;SDS011;11110;52.386;16.940;2023-12-28T00:26:04;38.87;;;11.13;;
21890;SDS011;11110;52.386;16.940;2023-12-28T00:28:33;40.20;;;12.43;;
21890;SDS011;11110;52.386;16.940;2023-12-28T00:31:02;49.03;;;12.97;;
21890;SDS011;11110;52.386;16.940;2023-12-28T00:33:31;39.03;;;11.63;;
21890;SDS011;11110;52.386;16.940;2023-12-28T00:36:00;40.00;;;11.47;;
21890;SDS011;11110;52.386;16.940;2023-12-28T00:38:28;38.07;;;12.77;;
21890;SDS011;11110;52.386;16.940;2023-12-28T00:40:57;38.33;;;11.07;;
21890;SDS011;11110;52.386;16.940;2023-12-28T00:43:25;38.00;;;11.73;;
21890;SDS011;11110;52.386;16.940;2023-12-28T00:45:55;36.30;;;11.13;;
21890;SDS011;11110;52.386;16.940;2023-12-28T00:48:23;41.47;;;12.33;;
21890;SDS011;11110;52.386;16.940;2023-12-28T00:50:52;41.37;;;12.00;;
21890;SDS011;11110;52.386;16.940;2023-12-28T00:53:22;44.20;;;12.33;;
21890;SDS011;11110;52.386;16.940;2023-12-28T00:55:50;45.43;;;12.07;;
21890;SDS011;11110;52.386;16.940;2023-12-28T00:58:19;39.13;;;11.77;;
21890;SDS011;11110;52.386;16.940;2023-12-28T01:00:47;39.73;;;11.97;;
21890;SDS011;11110;52.386;16.940;2023-12-28T01:03:21;34.13;;;11.50;;
21890;SDS011;11110;52.386;16.940;2023-12-28T01:05:53;46.73;;;12.80;;
21890;SDS011;11110;52.386;16.940;2023-12-28T01:08:21;46.27;;;12.77;;
21890;SDS011;11110;52.386;16.940;2023-12-28T01:10:50;44.67;;;12.37;;
21890;SDS011;11110;52.386;16.940;2023-12-28T01:13:18;38.37;;;11.80;;
21890;SDS011;11110;52.386;16.940;2023-12-28T01:15:47;41.40;;;12.60;;
21890;SDS011;11110;52.386;16.940;2023-12-28T01:18:16;42.83;;;12.27;;
21890;SDS011;11110;52.386;16.940;2023-12-28T01:20:46;42.63;;;12.20;;
21890;SDS011;11110;52.386;16.940;2023-12-28T01:23:14;49.33;;;12.43;;
21890;SDS011;11110;52.386;16.940;2023-12-28T01:25:43;44.63;;;12.00;;
21890;SDS011;11110;52.386;16.940;2023-12-28T01:28:11;42.00;;;11.90;;
21890;SDS011;11110;52.386;16.940;2023-12-28T01:30:41;41.27;;;11.20;;
21890;SDS011;11110;52.386;16.940;2023-12-28T01:33:11;37.73;;;11.17;;
21890;SDS011;11110;52.386;16.940;2023-12-28T01:35:40;37.20;;;11.17;;
21890;SDS011;11110;52.386;16.940;2023-12-28T01:38:10;38.83;;;12.03;;
21890;SDS011;11110;52.386;16.940;2023-12-28T01:40:43;41.00;;;10.97;;
21890;SDS011;11110;52.386;16.940;2023-12-28T01:43:12;39.77;;;11.33;;
21890;SDS011;11110;52.386;16.940;2023-12-28T01:45:41;36.87;;;11.23;;
21890;SDS011;11110;52.386;16.940;2023-12-28T01:48:09;41.07;;;11.57;;
21890;SDS011;11110;52.386;16.940;2023-12-28T01:50:39;39.70;;;11.87;;
21890;SDS011;11110;52.386;16.940;2023-12-28T01:53:07;42.90;;;11.53;;
21890;SDS011;11110;52.386;16.940;2023-12-28T01:55:37;40.97;;;11.83;;
21890;SDS011;11110;52.386;16.940;2023-12-28T01:58:06;35.50;;;10.20;;
21890;SDS011;11110;52.386;16.940;2023-12-28T02:00:34;36.47;;;10.00;;
21890;SDS011;11110;52.386;16.940;2023-12-28T02:03:06;35.90;;;10.20;;
21890;SDS011;11110;52.386;16.940;2023-12-28T02:05:35;36.00;;;10.30;;
21890;SDS011;11110;52.386;16.940;2023-12-28T02:08:03;34.03;;;10.10;;
21890;SDS011;11110;52.386;16.940;2023-12-28T02:10:33;34.93;;;9.13;;
21890;SDS011;11110;52.386;16.940;2023-12-28T02:13:03;37.30;;;11.00;;
21890;SDS011;11110;52.386;16.940;2023-12-28T02:15:31;28.10;;;9.00;;
21890;SDS011;11110;52.386;16.940;2023-12-28T02:18:01;30.33;;;9.30;;
21890;SDS011;11110;52.386;16.940;2023-12-28T02:20:36;36.47;;;9.77;;
21890;SDS011;11110;52.386;16.940;2023-12-28T02:23:07;30.27;;;9.57;;
21890;SDS011;11110;52.386;16.940;2023-12-28T02:25:38;27.30;;;8.83;;
21890;SDS011;11110;52.386;16.940;2023-12-28T02:28:06;35.77;;;10.00;;
21890;SDS011;11110;52.386;16.940;2023-12-28T02:30:35;30.83;;;8.83;;
21890;SDS011;11110;52.386;16.940;2023-12-28T02:33:07;27.43;;;8.63;;
21890;SDS011;11110;52.386;16.940;2023-12-28T02:35:42;30.27;;;9.50;;
21890;SDS011;11110;52.386;16.940;2023-12-28T02:38:14;30.10;;;9.03;;
21890;SDS011;11110;52.386;16.940;2023-12-28T02:40:45;42.10;;;10.77;;
21890;SDS011;11110;52.386;16.940;2023-12-28T02:43:15;32.00;;;8.67;;
21890;SDS011;11110;52.386;16.940;2023-12-28T02:45:43;35.97;;;10.47;;
21890;SDS011;11110;52.386;16.940;2023-12-28T02:48:12;32.00;;;9.50;;
21890;SDS011;11110;52.386;16.940;2023-12-28T02:50:41;32.03;;;9.40;;
21890;SDS011;11110;52.386;16.940;2023-12-28T02:53:09;31.27;;;8.87;;
21890;SDS011;11110;52.386;16.940;2023-12-28T02:55:38;32.43;;;9.90;;
21890;SDS011;11110;52.386;16.940;2023-12-28T02:58:08;31.97;;;8.70;;
21890;SDS011;11110;52.386;16.940;2023-12-28T03:00:36;28.23;;;8.47;;
21890;SDS011;11110;52.386;16.940;2023-12-28T03:03:05;34.57;;;9.93;;
21890;SDS011;11110;52.386;16.940;2023-12-28T03:05:34;41.27;;;12.07;;
21890;SDS011;11110;52.386;16.940;2023-12-28T03:08:02;35.70;;;10.40;;
21890;SDS011;11110;52.386;16.940;2023-12-28T03:10:33;26.13;;;8.53;;
21890;SDS011;11110;52.386;16.940;2023-12-28T03:13:02;31.50;;;9.83;;
21890;SDS011;11110;52.386;16.940;2023-12-28T03:15:32;36.53;;;10.50;;
21890;SDS011;11110;52.386;16.940;2023-12-28T03:18:01;30.43;;;9.30;;
21890;SDS011;11110;52.386;16.940;2023-12-28T03:20:30;24.77;;;7.83;;
21890;SDS011;11110;52.386;16.940;2023-12-28T03:22:58;29.47;;;9.40;;
21890;SDS011;11110;52.386;16.940;2023-12-28T03:25:27;35.27;;;10.17;;
21890;SDS011;11110;52.386;16.940;2023-12-28T03:27:56;34.23;;;9.57;;
21890;SDS011;11110;52.386;16.940;2023-12-28T03:30:25;33.37;;;9.63;;
21890;SDS011;11110;52.386;16.940;2023-12-28T03:32:54;33.77;;;9.53;;
21890;SDS011;11110;52.386;16.940;2023-12-28T03:35:25;33.87;;;10.03;;
21890;SDS011;11110;52.386;16.940;2023-12-28T03:37:53;34.20;;;9.70;;
21890;SDS011;11110;52.386;16.940;2023-12-28T03:40:22;28.00;;;8.57;;
21890;SDS011;11110;52.386;16.940;2023-12-28T03:42:50;31.23;;;9.53;;
21890;SDS011;11110;52.386;16.940;2023-12-28T03:45:19;29.63;;;9.10;;
21890;SDS011;11110;52.386;16.940;2023-12-28T03:47:48;30.20;;;10.33;;
21890;SDS011;11110;52.386;16.940;2023-12-28T03:50:19;34.90;;;10.23;;
21890;SDS011;11110;52.386;16.940;2023-12-28T03:52:48;30.73;;;9.43;;
21890;SDS011;11110;52.386;16.940;2023-12-28T03:55:17;36.20;;;10.73;;
21890;SDS011;11110;52.386;16.940;2023-12-28T03:57:45;38.50;;;10.60;;
21890;SDS011;11110;52.386;16.940;2023-12-28T04:00:14;34.20;;;10.23;;
21890;SDS011;11110;52.386;16.940;2023-12-28T04:02:43;34.30;;;9.83;;
21890;SDS011;11110;52.386;16.940;2023-12-28T04:05:13;39.27;;;10.20;;
21890;SDS011;11110;52.386;16.940;2023-12-28T04:07:43;38.23;;;10.33;;
21890;SDS011;11110;52.386;16.940;2023-12-28T04:10:12;36.50;;;10.07;;
21890;SDS011;11110;52.386;16.940;2023-12-28T04:12:40;37.30;;;11.17;;
21890;SDS011;11110;52.386;16.940;2023-12-28T04:15:09;37.03;;;10.53;;
21890;SDS011;11110;52.386;16.940;2023-12-28T04:17:37;36.10;;;10.30;;
21890;SDS011;11110;52.386;16.940;2023-12-28T04:20:06;32.13;;;9.43;;
21890;SDS011;11110;52.386;16.940;2023-12-28T04:22:35;31.60;;;10.30;;
21890;SDS011;11110;52.386;16.940;2023-12-28T04:25:06;30.87;;;9.67;;
21890;SDS011;11110;52.386;16.940;2023-12-28T04:27:35;23.90;;;8.63;;
21890;SDS011;11110;52.386;16.940;2023-12-28T04:30:04;27.30;;;8.50;;
21890;SDS011;11110;52.386;16.940;2023-12-28T04:32:33;28.07;;;9.40;;
21890;SDS011;11110;52.386;16.940;2023-12-28T04:35:02;36.53;;;10.03;;
21890;SDS011;11110;52.386;16.940;2023-12-28T04:37:31;29.17;;;9.00;;
21890;SDS011;11110;52.386;16.940;2023-12-28T04:40:01;32.23;;;9.53;;
21890;SDS011;11110;52.386;16.940;2023-12-28T04:42:32;37.70;;;10.33;;
21890;SDS011;11110;52.386;16.940;2023-12-28T04:45:01;32.80;;;9.73;;
21890;SDS011;11110;52.386;16.940;2023-12-28T04:47:30;30.27;;;9.57;;
21890;SDS011;11110;52.386;16.940;2023-12-28T04:49:59;32.43;;;9.53;;
21890;SDS011;11110;52.386;16.940;2023-12-28T04:52:27;31.07;;;9.10;;
21890;SDS011;11110;52.386;16.940;2023-12-28T04:54:56;31.43;;;9.93;;
21890;SDS011;11110;52.386;16.940;2023-12-28T04:57:24;28.60;;;8.77;;
21890;SDS011;11110;52.386;16.940;2023-12-28T04:59:56;32.53;;;9.57;;
21890;SDS011;11110;52.386;16.940;2023-12-28T05:02:25;30.13;;;8.73;;
21890;SDS011;11110;52.386;16.940;2023-12-28T05:04:54;29.60;;;8.47;;
21890;SDS011;11110;52.386;16.940;2023-12-28T05:07:22;37.03;;;9.80;;
21890;SDS011;11110;52.386;16.940;2023-12-28T05:09:51;31.67;;;9.03;;
21890;SDS011;11110;52.386;16.940;2023-12-28T05:12:19;29.70;;;9.17;;
21890;SDS011;11110;52.386;16.940;2023-12-28T05:14:48;28.33;;;8.07;;
21890;SDS011;11110;52.386;16.940;2023-12-28T05:17:18;21.03;;;7.53;;
21890;SDS011;11110;52.386;16.940;2023-12-28T05:19:46;30.70;;;8.87;;
21890;SDS011;11110;52.386;16.940;2023-12-28T05:22:15;30.30;;;8.57;;
21890;SDS011;11110;52.386;16.940;2023-12-28T05:24:44;24.57;;;8.27;;
21890;SDS011;11110;52.386;16.940;2023-12-28T05:27:12;28.23;;;9.10;;
21890;SDS011;11110;52.386;16.940;2023-12-28T05:29:40;36.97;;;10.23;;
21890;SDS011;11110;52.386;16.940;2023-12-28T05:32:09;35.80;;;10.23;;
21890;SDS011;11110;52.386;16.940;2023-12-28T05:34:39;34.57;;;9.47;;
21890;SDS011;11110;52.386;16.940;2023-12-28T05:37:07;28.93;;;8.70;;
21890;SDS011;11110;52.386;16.940;2023-12-28T05:39:36;27.27;;;8.67;;
21890;SDS011;11110;52.386;16.940;2023-12-28T05:42:04;28.57;;;8.17;;
21890;SDS011;11110;52.386;16.940;2023-12-28T05:44:33;27.77;;;8.23;;
21890;SDS011;11110;52.386;16.940;2023-12-28T05:47:01;30.73;;;8.97;;
21890;SDS011;11110;52.386;16.940;2023-12-28T05:49:30;26.73;;;8.03;;
21890;SDS011;11110;52.386;16.940;2023-12-28T05:52:01;31.47;;;9.03;;
21890;SDS011;11110;52.386;16.940;2023-12-28T05:54:30;26.37;;;7.90;;
21890;SDS011;11110;52.386;16.940;2023-12-28T05:56:58;27.50;;;8.03;;
21890;SDS011;11110;52.386;16.940;2023-12-28T05:59:27;22.97;;;7.63;;
21890;SDS011;11110;52.386;16.940;2023-12-28T06:01:55;22.20;;;7.40;;
21890;SDS011;11110;52.386;16.940;2023-12-28T06:04:24;22.07;;;6.73;;
21890;SDS011;11110;52.386;16.940;2023-12-28T06:06:52;26.33;;;7.90;;
21890;SDS011;11110;52.386;16.940;2023-12-28T06:09:22;26.10;;;7.73;;
21890;SDS011;11110;52.386;16.940;2023-12-28T06:11:50;26.43;;;7.17;;
21890;SDS011;11110;52.386;16.940;2023-12-28T06:14:19;32.27;;;8.13;;
21890;SDS011;11110;52.386;16.940;2023-12-28T06:16:48;24.13;;;6.60;;
21890;SDS011;11110;52.386;16.940;2023-12-28T06:19:16;26.40;;;7.30;;
21890;SDS011;11110;52.386;16.940;2023-12-28T06:21:45;30.60;;;7.73;;
21890;SDS011;11110;52.386;16.940;2023-12-28T06:24:14;22.67;;;6.97;;
21890;SDS011;11110;52.386;16.940;2023-12-28T06:26:44;23.80;;;6.27;;
21890;SDS011;11110;52.386;16.940;2023-12-28T06:29:13;22.93;;;6.53;;
21890;SDS011;11110;52.386;16.940;2023-12-28T06:31:41;20.93;;;6.40;;
21890;SDS011;11110;52.386;16.940;2023-12-28T06:34:10;20.90;;;6.30;;
21890;SDS011;11110;52.386;16.940;2023-12-28T06:36:39;24.77;;;6.27;;
21890;SDS011;11110;52.386;16.940;2023-12-28T06:39:07;29.40;;;7.07;;
21890;SDS011;11110;52.386;16.940;2023-12-28T06:41:36;25.33;;;6.87;;
21890;SDS011;11110;52.386;16.940;2023-12-28T06:44:06;22.00;;;6.53;;
21890;SDS011;11110;52.386;16.940;2023-12-28T06:46:35;30.57;;;7.33;;
21890;SDS011;11110;52.386;16.940;2023-12-28T06:49:03;26.43;;;6.97;;
21890;SDS011;11110;52.386;16.940;2023-12-28T06:51:37;27.67;;;7.40;;
21890;SDS011;11110;52.386;16.940;2023-12-28T06:54:05;29.30;;;7.43;;
21890;SDS011;11110;52.386;16.940;2023-12-28T06:56:33;30.67;;;7.67;;
21890;SDS011;11110;52.386;16.940;2023-12-28T06:59:02;22.57;;;6.73;;
21890;SDS011;11110;52.386;16.940;2023-12-28T07:01:32;24.93;;;7.10;;
21890;SDS011;11110;52.386;16.940;2023-12-28T07:04:01;17.87;;;5.47;;
21890;SDS011;11110;52.386;16.940;2023-12-28T07:06:30;30.30;;;7.07;;
21890;SDS011;11110;52.386;16.940;2023-12-28T07:08:58;26.03;;;6.50;;
21890;SDS011;11110;52.386;16.940;2023-12-28T07:11:27;27.30;;;7.00;;
21890;SDS011;11110;52.386;16.940;2023-12-28T07:13:55;25.47;;;7.13;;
21890;SDS011;11110;52.386;16.940;2023-12-28T07:16:24;30.33;;;8.10;;
21890;SDS011;11110;52.386;16.940;2023-12-28T07:18:54;18.77;;;6.57;;
21890;SDS011;11110;52.386;16.940;2023-12-28T07:21:23;24.03;;;6.87;;
21890;SDS011;11110;52.386;16.940;2023-12-28T07:23:51;31.07;;;8.13;;
21890;SDS011;11110;52.386;16.940;2023-12-28T07:26:20;27.97;;;7.83;;
21890;SDS011;11110;52.386;16.940;2023-12-28T07:28:48;26.83;;;6.87;;
21890;SDS011;11110;52.386;16.940;2023-12-28T07:31:23;29.63;;;7.77;;
21890;SDS011;11110;52.386;16.940;2023-12-28T07:33:52;24.07;;;6.67;;
21890;SDS011;11110;52.386;16.940;2023-12-28T07:36:23;22.50;;;6.80;;
21890;SDS011;11110;52.386;16.940;2023-12-28T07:38:51;29.80;;;7.57;;
21890;SDS011;11110;52.386;16.940;2023-12-28T07:41:20;26.87;;;7.30;;
21890;SDS011;11110;52.386;16.940;2023-12-28T07:43:48;30.40;;;7.43;;
21890;SDS011;11110;52.386;16.940;2023-12-28T07:46:17;33.90;;;8.50;;
21890;SDS011;11110;52.386;16.940;2023-12-28T07:48:45;22.83;;;6.93;;
21890;SDS011;11110;52.386;16.940;2023-12-28T07:51:14;31.80;;;8.03;;
21890;SDS011;11110;52.386;16.940;2023-12-28T07:53:44;30.07;;;7.97;;
21890;SDS011;11110;52.386;16.940;2023-12-28T07:56:12;28.00;;;7.80;;
21890;SDS011;11110;52.386;16.940;2023-12-28T07:58:41;28.00;;;7.97;;
21890;SDS011;11110;52.386;16.940;2023-12-28T08:01:10;26.23;;;7.37;;
21890;SDS011;11110;52.386;16.940;2023-12-28T08:03:39;24.50;;;7.23;;
21890;SDS011;11110;52.386;16.940;2023-12-28T08:06:07;24.73;;;6.93;;
21890;SDS011;11110;52.386;16.940;2023-12-28T08:08:39;29.30;;;7.30;;
21890;SDS011;11110;52.386;16.940;2023-12-28T08:11:09;27.23;;;7.27;;
21890;SDS011;11110;52.386;16.940;2023-12-28T08:13:39;23.37;;;6.53;;
21890;SDS011;11110;52.386;16.940;2023-12-28T08:16:07;25.90;;;7.20;;
21890;SDS011;11110;52.386;16.940;2023-12-28T08:18:36;28.97;;;7.73;;
21890;SDS011;11110;52.386;16.940;2023-12-28T08:21:04;30.30;;;7.83;;
21890;SDS011;11110;52.386;16.940;2023-12-28T08:23:33;29.33;;;7.40;;
21890;SDS011;11110;52.386;16.940;2023-12-28T08:26:01;31.93;;;8.80;;
21890;SDS011;11110;52.386;16.940;2023-12-28T08:28:32;29.33;;;8.30;;
21890;SDS011;11110;52.386;16.940;2023-12-28T08:31:01;28.87;;;7.83;;
21890;SDS011;11110;52.386;16.940;2023-12-28T08:33:29;25.07;;;7.73;;
21890;SDS011;11110;52.386;16.940;2023-12-28T08:35:59;25.37;;;7.80;;
21890;SDS011;11110;52.386;16.940;2023-12-28T08:38:27;29.87;;;8.17;;
21890;SDS011;11110;52.386;16.940;2023-12-28T08:40:56;36.30;;;9.27;;
21890;SDS011;11110;52.386;16.940;2023-12-28T08:43:24;31.07;;;9.07;;
21890;SDS011;11110;52.386;16.940;2023-12-28T08:45:54;26.03;;;7.80;;
21890;SDS011;11110;52.386;16.940;2023-12-28T08:48:23;30.87;;;8.40;;
21890;SDS011;11110;52.386;16.940;2023-12-28T08:50:52;26.07;;;7.43;;
21890;SDS011;11110;52.386;16.940;2023-12-28T08:53:20;24.17;;;6.87;;
21890;SDS011;11110;52.386;16.940;2023-12-28T08:55:49;27.43;;;7.93;;
21890;SDS011;11110;52.386;16.940;2023-12-28T08:58:17;30.07;;;7.77;;
21890;SDS011;11110;52.386;16.940;2023-12-28T09:00:46;38.03;;;9.40;;
21890;SDS011;11110;52.386;16.940;2023-12-28T09:03:17;33.90;;;7.97;;
21890;SDS011;11110;52.386;16.940;2023-12-28T09:05:48;27.90;;;7.13;;
21890;SDS011;11110;52.386;16.940;2023-12-28T09:08:17;26.90;;;7.37;;
21890;SDS011;11110;52.386;16.940;2023-12-28T09:10:45;25.13;;;7.17;;
21890;SDS011;11110;52.386;16.940;2023-12-28T09:13:14;29.83;;;7.97;;
21890;SDS011;11110;52.386;16.940;2023-12-28T09:15:44;26.27;;;6.97;;
21890;SDS011;11110;52.386;16.940;2023-12-28T09:18:13;26.67;;;7.40;;
21890;SDS011;11110;52.386;16.940;2023-12-28T09:20:44;22.27;;;6.37;;
21890;SDS011;11110;52.386;16.940;2023-12-28T09:23:12;24.77;;;6.77;;
21890;SDS011;11110;52.386;16.940;2023-12-28T09:25:41;27.80;;;7.57;;
21890;SDS011;11110;52.386;16.940;2023-12-28T09:28:09;25.37;;;6.87;;
21890;SDS011;11110;52.386;16.940;2023-12-28T09:30:38;20.03;;;5.83;;
21890;SDS011;11110;52.386;16.940;2023-12-28T09:33:06;23.67;;;6.43;;
21890;SDS011;11110;52.386;16.940;2023-12-28T09:35:35;30.30;;;7.83;;
21890;SDS011;11110;52.386;16.940;2023-12-28T09:38:05;23.13;;;6.37;;
21890;SDS011;11110;52.386;16.940;2023-12-28T09:40:34;25.40;;;6.70;;
21890;SDS011;11110;52.386;16.940;2023-12-28T09:43:06;22.70;;;6.17;;
21890;SDS011;11110;52.386;16.940;2023-12-28T09:45:40;23.67;;;6.83;;
21890;SDS011;11110;52.386;16.940;2023-12-28T09:48:09;25.57;;;6.90;;
21890;SDS011;11110;52.386;16.940;2023-12-28T09:50:39;17.43;;;5.73;;
21890;SDS011;11110;52.386;16.940;2023-12-28T09:53:09;28.50;;;7.17;;
21890;SDS011;11110;52.386;16.940;2023-12-28T09:55:38;25.70;;;7.13;;
21890;SDS011;11110;52.386;16.940;2023-12-28T09:58:06;26.63;;;7.23;;
21890;SDS011;11110;52.386;16.940;2023-12-28T10:00:35;27.63;;;7.73;;
21890;SDS011;11110;52.386;16.940;2023-12-28T10:03:04;27.90;;;7.47;;
21890;SDS011;11110;52.386;16.940;2023-12-28T10:05:34;26.00;;;7.53;;
21890;SDS011;11110;52.386;16.940;2023-12-28T10:08:02;20.83;;;6.30;;
21890;SDS011;11110;52.386;16.940;2023-12-28T10:10:34;28.43;;;8.07;;
21890;SDS011;11110;52.386;16.940;2023-12-28T10:13:03;28.17;;;8.17;;
21890;SDS011;11110;52.386;16.940;2023-12-28T10:15:31;27.33;;;7.30;;
21890;SDS011;11110;52.386;16.940;2023-12-28T10:18:00;21.53;;;5.90;;
21890;SDS011;11110;52.386;16.940;2023-12-28T10:20:30;26.47;;;7.10;;
21890;SDS011;11110;52.386;16.940;2023-12-28T10:22:58;20.80;;;6.23;;
21890;SDS011;11110;52.386;16.940;2023-12-28T10:25:31;22.77;;;6.40;;
21890;SDS011;11110;52.386;16.940;2023-12-28T10:28:05;19.53;;;6.07;;
21890;SDS011;11110;52.386;16.940;2023-12-28T10:30:34;23.77;;;6.67;;
21890;SDS011;11110;52.386;16.940;2023-12-28T10:33:04;26.97;;;7.00;;
21890;SDS011;11110;52.386;16.940;2023-12-28T10:35:34;23.30;;;6.40;;
21890;SDS011;11110;52.386;16.940;2023-12-28T10:38:02;26.73;;;6.97;;
21890;SDS011;11110;52.386;16.940;2023-12-28T10:40:35;20.93;;;6.10;;
21890;SDS011;11110;52.386;16.940;2023-12-28T10:43:07;26.63;;;6.80;;
21890;SDS011;11110;52.386;16.940;2023-12-28T10:45:39;24.70;;;7.13;;
21890;SDS011;11110;52.386;16.940;2023-12-28T10:48:10;20.27;;;5.60;;
21890;SDS011;11110;52.386;16.940;2023-12-28T10:50:40;19.37;;;5.93;;
21890;SDS011;11110;52.386;16.940;2023-12-28T10:53:15;22.40;;;6.80;;
21890;SDS011;11110;52.386;16.940;2023-12-28T10:55:58;24.90;;;6.57;;
21890;SDS011;11110;52.386;16.940;2023-12-28T10:58:37;25.57;;;6.90;;
21890;SDS011;11110;52.386;16.940;2023-12-28T11:01:17;26.97;;;7.57;;
21890;SDS011;11110;52.386;16.940;2023-12-28T11:03:52;25.83;;;7.30;;
21890;SDS011;11110;52.386;16.940;2023-12-28T11:06:30;26.93;;;7.80;;
21890;SDS011;11110;52.386;16.940;2023-12-28T11:09:00;23.40;;;6.70;;
21890;SDS011;11110;52.386;16.940;2023-12-28T11:11:33;24.60;;;7.00;;
21890;SDS011;11110;52.386;16.940;2023-12-28T11:14:05;29.93;;;8.20;;
21890;SDS011;11110;52.386;16.940;2023-12-28T11:16:35;19.20;;;6.67;;
21890;SDS011;11110;52.386;16.940;2023-12-28T11:19:06;25.73;;;7.20;;
21890;SDS011;11110;52.386;16.940;2023-12-28T11:21:36;22.87;;;7.20;;
21890;SDS011;11110;52.386;16.940;2023-12-28T11:24:05;22.43;;;7.03;;
21890;SDS011;11110;52.386;16.940;2023-12-28T11:26:35;21.77;;;6.20;;
21890;SDS011;11110;52.386;16.940;2023-12-28T11:29:04;22.33;;;6.83;;
21890;SDS011;11110;52.386;16.940;2023-12-28T11:31:33;24.73;;;6.97;;
21890;SDS011;11110;52.386;16.940;2023-12-28T11:34:03;26.17;;;7.73;;
21890;SDS011;11110;52.386;16.940;2023-12-28T11:36:40;23.50;;;7.13;;
21890;SDS011;11110;52.386;16.940;2023-12-28T11:39:12;20.63;;;6.27;;
21890;SDS011;11110;52.386;16.940;2023-12-28T11:41:48;29.27;;;8.00;;
21890;SDS011;11110;52.386;16.940;2023-12-28T11:44:18;19.93;;;6.23;;
21890;SDS011;11110;52.386;16.940;2023-12-28T11:46:46;21.33;;;6.40;;
21890;SDS011;11110;52.386;16.940;2023-12-28T11:49:14;25.60;;;7.77;;
21890;SDS011;11110;52.386;16.940;2023-12-28T11:51:54;22.73;;;6.77;;
21890;SDS011;11110;52.386;16.940;2023-12-28T11:54:24;17.80;;;5.93;;
21890;SDS011;11110;52.386;16.940;2023-12-28T11:56:53;23.50;;;7.13;;
21890;SDS011;11110;52.386;16.940;2023-12-28T11:59:23;22.57;;;6.93;;
21890;SDS011;11110;52.386;16.940;2023-12-28T12:01:52;23.83;;;7.03;;
21890;SDS011;11110;52.386;16.940;2023-12-28T12:04:21;23.87;;;7.50;;
21890;SDS011;11110;52.386;16.940;2023-12-28T12:06:49;20.23;;;6.40;;
21890;SDS011;11110;52.386;16.940;2023-12-28T12:09:20;21.17;;;6.67;;
21890;SDS011;11110;52.386;16.940;2023-12-28T12:11:51;22.17;;;7.13;;
21890;SDS011;11110;52.386;16.940;2023-12-28T12:14:20;23.23;;;6.97;;
21890;SDS011;11110;52.386;16.940;2023-12-28T12:16:50;23.00;;;7.20;;
21890;SDS011;11110;52.386;16.940;2023-12-28T12:19:19;17.83;;;5.83;;
21890;SDS011;11110;52.386;16.940;2023-12-28T12:21:48;28.87;;;7.90;;
21890;SDS011;11110;52.386;16.940;2023-12-28T12:24:17;27.77;;;8.27;;
21890;SDS011;11110;52.386;16.940;2023-12-28T12:26:46;23.27;;;7.30;;
21890;SDS011;11110;52.386;16.940;2023-12-28T12:29:15;22.70;;;6.77;;
21890;SDS011;11110;52.386;16.940;2023-12-28T12:31:47;18.70;;;6.47;;
21890;SDS011;11110;52.386;16.940;2023-12-28T12:34:17;25.37;;;7.33;;
21890;SDS011;11110;52.386;16.940;2023-12-28T12:36:46;23.87;;;6.63;;
21890;SDS011;11110;52.386;16.940;2023-12-28T12:39:15;30.47;;;8.23;;
21890;SDS011;11110;52.386;16.940;2023-12-28T12:41:45;27.30;;;8.37;;
21890;SDS011;11110;52.386;16.940;2023-12-28T12:44:14;23.53;;;7.10;;
21890;SDS011;11110;52.386;16.940;2023-12-28T12:46:43;25.80;;;7.47;;
21890;SDS011;11110;52.386;16.940;2023-12-28T12:49:12;16.67;;;6.13;;
21890;SDS011;11110;52.386;16.940;2023-12-28T12:51:42;26.10;;;7.90;;
21890;SDS011;11110;52.386;16.940;2023-12-28T12:54:12;25.43;;;7.40;;
21890;SDS011;11110;52.386;16.940;2023-12-28T12:56:41;23.83;;;7.17;;
21890;SDS011;11110;52.386;16.940;2023-12-28T12:59:12;24.37;;;7.17;;
21890;SDS011;11110;52.386;16.940;2023-12-28T13:01:43;21.20;;;6.97;;
21890;SDS011;11110;52.386;16.940;2023-12-28T13:04:16;21.17;;;6.87;;
21890;SDS011;11110;52.386;16.940;2023-12-28T13:06:46;19.03;;;6.13;;
21890;SDS011;11110;52.386;16.940;2023-12-28T13:09:15;25.23;;;7.27;;
21890;SDS011;11110;52.386;16.940;2023-12-28T13:11:43;20.90;;;6.53;;
21890;SDS011;11110;52.386;16.940;2023-12-28T13:14:15;26.97;;;7.53;;
21890;SDS011;11110;52.386;16.940;2023-12-28T13:16:44;21.90;;;6.97;;
21890;SDS011;11110;52.386;16.940;2023-12-28T13:19:15;21.37;;;6.70;;
21890;SDS011;11110;52.386;16.940;2023-12-28T13:21:45;25.03;;;7.27;;
21890;SDS011;11110;52.386;16.940;2023-12-28T13:24:13;21.90;;;6.77;;
21890;SDS011;11110;52.386;16.940;2023-12-28T13:26:42;19.23;;;6.40;;
21890;SDS011;11110;52.386;16.940;2023-12-28T13:29:11;16.67;;;5.70;;
21890;SDS011;11110;52.386;16.940;2023-12-28T13:31:39;22.67;;;6.60;;
21890;SDS011;11110;52.386;16.940;2023-12-28T13:34:08;23.77;;;7.07;;
21890;SDS011;11110;52.386;16.940;2023-12-28T13:36:37;22.60;;;7.00;;
21890;SDS011;11110;52.386;16.940;2023-12-28T13:39:07;21.00;;;6.43;;
21890;SDS011;11110;52.386;16.940;2023-12-28T13:41:38;21.97;;;6.80;;
21890;SDS011;11110;52.386;16.940;2023-12-28T13:44:06;27.03;;;7.57;;
21890;SDS011;11110;52.386;16.940;2023-12-28T13:46:39;20.00;;;6.43;;
21890;SDS011;11110;52.386;16.940;2023-12-28T13:49:07;23.10;;;7.10;;
21890;SDS011;11110;52.386;16.940;2023-12-28T13:51:36;25.77;;;7.17;;
21890;SDS011;11110;52.386;16.940;2023-12-28T13:54:05;27.77;;;8.27;;
21890;SDS011;11110;52.386;16.940;2023-12-28T13:56:35;23.13;;;6.93;;
21890;SDS011;11110;52.386;16.940;2023-12-28T13:59:03;23.73;;;6.87;;
21890;SDS011;11110;52.386;16.940;2023-12-28T14:01:31;20.97;;;6.50;;
21890;SDS011;11110;52.386;16.940;2023-12-28T14:04:00;22.40;;;7.00;;
21890;SDS011;11110;52.386;16.940;2023-12-28T14:06:30;22.23;;;6.80;;
21890;SDS011;11110;52.386;16.940;2023-12-28T14:08:58;20.70;;;7.10;;
21890;SDS011;11110;52.386;16.940;2023-12-28T14:11:29;23.47;;;7.03;;
21890;SDS011;11110;52.386;16.940;2023-12-28T14:13:57;24.60;;;7.47;;
21890;SDS011;11110;52.386;16.940;2023-12-28T14:16:26;20.43;;;6.77;;
21890;SDS011;11110;52.386;16.940;2023-12-28T14:18:54;18.80;;;6.17;;
21890;SDS011;11110;52.386;16.940;2023-12-28T14:21:23;22.07;;;6.90;;
21890;SDS011;11110;52.386;16.940;2023-12-28T14:23:52;26.70;;;7.40;;
21890;SDS011;11110;52.386;16.940;2023-12-28T14:26:21;22.53;;;6.53;;
21890;SDS011;11110;52.386;16.940;2023-12-28T14:28:51;26.23;;;7.23;;
21890;SDS011;11110;52.386;16.940;2023-12-28T14:31:20;26.27;;;7.90;;